Terminal Aerodrome Forecast
Issued by NWS Mt. Holly, NJ

Home | Current Version | Previous Version | Text Only | Print | Product List | Glossary On
Versions: 1 2 3 4 5 6 7 8 9 10 11 12 13 14 15 16
245
FTUS41 KPHI 231754 AAC
TAFRDG
TAF AMD
KRDG 231754Z 2318/2418 23004KT P6SM BKN050
     FM240300 VRB03KT P6SM BKN050 PROB30 2403/2406 3SM -SHRA OVC025
     FM240900 00000KT 3SM BR SCT006 OVC012
      TEMPO 2411/2413 1/2SM FG OVC004
     FM241300 16005KT 2SM BR BKN006
     FM241500 16005KT 5SM HZ SCT009 BKN015
     FM241700 18007KT P6SM SCT015 BKN200=

USA.gov is the U.S. government's official web portal to all federal, state and local government web resources and services.